sensor_id;sensor_type;location;lat;lon;timestamp;P1;durP1;ratioP1;P2;durP2;ratioP2
12844;SDS011;68700;48.534;9.196;2023-09-19T00:00:31;2.63;;;1.27;;
12844;SDS011;68700;48.534;9.196;2023-09-19T00:03:55;1.17;;;1.07;;
12844;SDS011;68700;48.534;9.196;2023-09-19T00:07:17;4.40;;;1.27;;
12844;SDS011;68700;48.534;9.196;2023-09-19T00:10:39;2.27;;;1.30;;
12844;SDS011;68700;48.534;9.196;2023-09-19T00:14:02;4.20;;;1.10;;
12844;SDS011;68700;48.534;9.196;2023-09-19T00:17:25;1.93;;;1.27;;
12844;SDS011;68700;48.534;9.196;2023-09-19T00:20:49;1.63;;;1.37;;
12844;SDS011;68700;48.534;9.196;2023-09-19T00:24:11;1.20;;;1.10;;
12844;SDS011;68700;48.534;9.196;2023-09-19T00:27:34;1.40;;;1.10;;
12844;SDS011;68700;48.534;9.196;2023-09-19T00:30:55;1.73;;;1.20;;
12844;SDS011;68700;48.534;9.196;2023-09-19T00:34:21;2.40;;;1.17;;
12844;SDS011;68700;48.534;9.196;2023-09-19T00:37:44;2.50;;;1.20;;
12844;SDS011;68700;48.534;9.196;2023-09-19T00:41:08;1.30;;;1.20;;
12844;SDS011;68700;48.534;9.196;2023-09-19T00:44:30;1.97;;;1.03;;
12844;SDS011;68700;48.534;9.196;2023-09-19T00:47:52;1.50;;;1.10;;
12844;SDS011;68700;48.534;9.196;2023-09-19T00:51:14;1.70;;;0.90;;
12844;SDS011;68700;48.534;9.196;2023-09-19T00:54:40;3.10;;;1.23;;
12844;SDS011;68700;48.534;9.196;2023-09-19T00:58:02;2.07;;;1.27;;
12844;SDS011;68700;48.534;9.196;2023-09-19T01:01:26;1.00;;;1.00;;
12844;SDS011;68700;48.534;9.196;2023-09-19T01:04:48;1.10;;;1.00;;
12844;SDS011;68700;48.534;9.196;2023-09-19T01:08:10;2.13;;;1.17;;
12844;SDS011;68700;48.534;9.196;2023-09-19T01:11:35;1.37;;;1.17;;
12844;SDS011;68700;48.534;9.196;2023-09-19T01:15:06;1.67;;;1.20;;
12844;SDS011;68700;48.534;9.196;2023-09-19T01:18:35;2.83;;;1.20;;
12844;SDS011;68700;48.534;9.196;2023-09-19T01:22:07;1.80;;;1.20;;
12844;SDS011;68700;48.534;9.196;2023-09-19T01:29:34;1.80;;;1.30;;
12844;SDS011;68700;48.534;9.196;2023-09-19T01:33:01;4.53;;;1.30;;
12844;SDS011;68700;48.534;9.196;2023-09-19T01:36:24;1.73;;;1.20;;
12844;SDS011;68700;48.534;9.196;2023-09-19T01:39:51;2.17;;;1.43;;
12844;SDS011;68700;48.534;9.196;2023-09-19T01:43:20;2.57;;;1.57;;
12844;SDS011;68700;48.534;9.196;2023-09-19T01:46:46;2.60;;;1.33;;
12844;SDS011;68700;48.534;9.196;2023-09-19T01:50:13;3.30;;;1.70;;
12844;SDS011;68700;48.534;9.196;2023-09-19T01:53:41;3.67;;;1.60;;
12844;SDS011;68700;48.534;9.196;2023-09-19T01:57:16;3.40;;;1.63;;
12844;SDS011;68700;48.534;9.196;2023-09-19T02:00:43;3.27;;;1.50;;
12844;SDS011;68700;48.534;9.196;2023-09-19T02:04:10;3.43;;;1.63;;
12844;SDS011;68700;48.534;9.196;2023-09-19T02:07:33;1.70;;;1.43;;
12844;SDS011;68700;48.534;9.196;2023-09-19T02:11:00;2.57;;;1.53;;
12844;SDS011;68700;48.534;9.196;2023-09-19T02:14:22;1.83;;;1.60;;
12844;SDS011;68700;48.534;9.196;2023-09-19T02:17:44;1.47;;;1.30;;
12844;SDS011;68700;48.534;9.196;2023-09-19T02:21:06;2.90;;;1.53;;
12844;SDS011;68700;48.534;9.196;2023-09-19T02:24:31;1.80;;;1.40;;
12844;SDS011;68700;48.534;9.196;2023-09-19T02:27:53;2.67;;;1.30;;
12844;SDS011;68700;48.534;9.196;2023-09-19T02:31:18;1.57;;;1.47;;
12844;SDS011;68700;48.534;9.196;2023-09-19T02:34:40;1.97;;;1.23;;
12844;SDS011;68700;48.534;9.196;2023-09-19T02:38:02;2.40;;;1.30;;
12844;SDS011;68700;48.534;9.196;2023-09-19T02:41:27;2.90;;;1.53;;
12844;SDS011;68700;48.534;9.196;2023-09-19T02:44:50;4.70;;;1.30;;
12844;SDS011;68700;48.534;9.196;2023-09-19T02:48:17;2.50;;;1.40;;
12844;SDS011;68700;48.534;9.196;2023-09-19T02:51:42;2.37;;;1.50;;
12844;SDS011;68700;48.534;9.196;2023-09-19T02:55:04;2.97;;;1.50;;
12844;SDS011;68700;48.534;9.196;2023-09-19T02:58:30;1.57;;;1.47;;
12844;SDS011;68700;48.534;9.196;2023-09-19T03:01:55;2.67;;;1.77;;
12844;SDS011;68700;48.534;9.196;2023-09-19T03:05:17;2.40;;;1.33;;
12844;SDS011;68700;48.534;9.196;2023-09-19T03:08:42;1.60;;;1.50;;
12844;SDS011;68700;48.534;9.196;2023-09-19T03:12:05;2.50;;;1.57;;
12844;SDS011;68700;48.534;9.196;2023-09-19T03:15:29;1.57;;;1.47;;
12844;SDS011;68700;48.534;9.196;2023-09-19T03:18:51;2.40;;;1.70;;
12844;SDS011;68700;48.534;9.196;2023-09-19T03:22:13;2.80;;;1.67;;
12844;SDS011;68700;48.534;9.196;2023-09-19T03:25:35;2.77;;;1.47;;
12844;SDS011;68700;48.534;9.196;2023-09-19T03:28:59;3.20;;;1.70;;
12844;SDS011;68700;48.534;9.196;2023-09-19T03:32:27;2.10;;;1.43;;
12844;SDS011;68700;48.534;9.196;2023-09-19T03:35:51;2.80;;;1.70;;
12844;SDS011;68700;48.534;9.196;2023-09-19T03:39:14;3.90;;;1.67;;
12844;SDS011;68700;48.534;9.196;2023-09-19T03:42:37;2.63;;;1.50;;
12844;SDS011;68700;48.534;9.196;2023-09-19T03:46:01;2.97;;;1.43;;
12844;SDS011;68700;48.534;9.196;2023-09-19T03:49:25;1.50;;;1.40;;
12844;SDS011;68700;48.534;9.196;2023-09-19T03:52:47;2.53;;;1.70;;
12844;SDS011;68700;48.534;9.196;2023-09-19T03:56:08;3.63;;;1.50;;
12844;SDS011;68700;48.534;9.196;2023-09-19T03:59:30;2.17;;;1.80;;
12844;SDS011;68700;48.534;9.196;2023-09-19T04:02:52;1.70;;;1.60;;
12844;SDS011;68700;48.534;9.196;2023-09-19T04:06:17;2.40;;;1.50;;
12844;SDS011;68700;48.534;9.196;2023-09-19T04:09:39;2.50;;;1.50;;
12844;SDS011;68700;48.534;9.196;2023-09-19T04:13:01;4.40;;;1.57;;
12844;SDS011;68700;48.534;9.196;2023-09-19T04:16:24;2.90;;;1.47;;
12844;SDS011;68700;48.534;9.196;2023-09-19T04:19:46;2.53;;;1.63;;
12844;SDS011;68700;48.534;9.196;2023-09-19T04:23:09;3.07;;;1.77;;
12844;SDS011;68700;48.534;9.196;2023-09-19T04:26:30;2.70;;;1.67;;
12844;SDS011;68700;48.534;9.196;2023-09-19T04:29:53;1.70;;;1.60;;
12844;SDS011;68700;48.534;9.196;2023-09-19T04:33:19;2.43;;;1.50;;
12844;SDS011;68700;48.534;9.196;2023-09-19T04:36:44;4.77;;;1.73;;
12844;SDS011;68700;48.534;9.196;2023-09-19T04:40:08;3.50;;;1.90;;
12844;SDS011;68700;48.534;9.196;2023-09-19T04:43:33;2.03;;;1.57;;
12844;SDS011;68700;48.534;9.196;2023-09-19T04:46:55;2.13;;;1.50;;
12844;SDS011;68700;48.534;9.196;2023-09-19T04:50:17;4.03;;;1.57;;
12844;SDS011;68700;48.534;9.196;2023-09-19T04:53:41;2.23;;;1.70;;
12844;SDS011;68700;48.534;9.196;2023-09-19T04:57:06;3.97;;;2.07;;
12844;SDS011;68700;48.534;9.196;2023-09-19T05:00:28;5.17;;;2.13;;
12844;SDS011;68700;48.534;9.196;2023-09-19T05:03:50;4.07;;;2.10;;
12844;SDS011;68700;48.534;9.196;2023-09-19T05:07:13;3.47;;;2.10;;
12844;SDS011;68700;48.534;9.196;2023-09-19T05:10:35;2.43;;;1.73;;
12844;SDS011;68700;48.534;9.196;2023-09-19T05:13:59;2.17;;;1.67;;
12844;SDS011;68700;48.534;9.196;2023-09-19T05:17:23;3.20;;;1.90;;
12844;SDS011;68700;48.534;9.196;2023-09-19T05:20:48;2.93;;;1.70;;
12844;SDS011;68700;48.534;9.196;2023-09-19T05:24:09;3.03;;;1.93;;
12844;SDS011;68700;48.534;9.196;2023-09-19T05:27:32;1.80;;;1.50;;
12844;SDS011;68700;48.534;9.196;2023-09-19T05:30:56;3.07;;;1.90;;
12844;SDS011;68700;48.534;9.196;2023-09-19T05:34:17;2.97;;;1.90;;
12844;SDS011;68700;48.534;9.196;2023-09-19T05:37:39;2.57;;;1.60;;
12844;SDS011;68700;48.534;9.196;2023-09-19T05:41:02;3.30;;;1.70;;
12844;SDS011;68700;48.534;9.196;2023-09-19T05:44:26;4.87;;;1.90;;
12844;SDS011;68700;48.534;9.196;2023-09-19T05:47:49;3.60;;;1.80;;
12844;SDS011;68700;48.534;9.196;2023-09-19T05:51:11;7.07;;;1.80;;
12844;SDS011;68700;48.534;9.196;2023-09-19T05:54:33;5.27;;;2.13;;
12844;SDS011;68700;48.534;9.196;2023-09-19T05:57:55;3.43;;;1.70;;
12844;SDS011;68700;48.534;9.196;2023-09-19T06:01:17;1.60;;;1.50;;
12844;SDS011;68700;48.534;9.196;2023-09-19T06:04:40;1.93;;;1.40;;
12844;SDS011;68700;48.534;9.196;2023-09-19T06:08:02;3.83;;;1.90;;
12844;SDS011;68700;48.534;9.196;2023-09-19T06:11:27;2.40;;;1.80;;
12844;SDS011;68700;48.534;9.196;2023-09-19T06:14:52;1.93;;;1.50;;
12844;SDS011;68700;48.534;9.196;2023-09-19T06:18:14;2.23;;;1.30;;
12844;SDS011;68700;48.534;9.196;2023-09-19T06:21:40;2.00;;;1.40;;
12844;SDS011;68700;48.534;9.196;2023-09-19T06:25:03;2.20;;;1.30;;
12844;SDS011;68700;48.534;9.196;2023-09-19T06:28:26;2.47;;;1.60;;
12844;SDS011;68700;48.534;9.196;2023-09-19T06:31:48;2.67;;;1.13;;
12844;SDS011;68700;48.534;9.196;2023-09-19T06:35:11;3.70;;;1.60;;
12844;SDS011;68700;48.534;9.196;2023-09-19T06:38:34;2.03;;;1.30;;
12844;SDS011;68700;48.534;9.196;2023-09-19T06:41:57;3.17;;;1.30;;
12844;SDS011;68700;48.534;9.196;2023-09-19T06:45:20;2.30;;;1.13;;
12844;SDS011;68700;48.534;9.196;2023-09-19T06:48:42;1.57;;;1.20;;
12844;SDS011;68700;48.534;9.196;2023-09-19T06:52:04;1.30;;;1.20;;
12844;SDS011;68700;48.534;9.196;2023-09-19T06:55:28;1.97;;;1.13;;
12844;SDS011;68700;48.534;9.196;2023-09-19T06:58:51;3.50;;;1.27;;
12844;SDS011;68700;48.534;9.196;2023-09-19T07:02:13;1.77;;;1.13;;
12844;SDS011;68700;48.534;9.196;2023-09-19T07:05:34;1.40;;;1.30;;
12844;SDS011;68700;48.534;9.196;2023-09-19T07:08:57;1.57;;;1.40;;
12844;SDS011;68700;48.534;9.196;2023-09-19T07:12:20;2.77;;;1.40;;
12844;SDS011;68700;48.534;9.196;2023-09-19T07:15:42;1.23;;;1.13;;
12844;SDS011;68700;48.534;9.196;2023-09-19T07:19:07;3.30;;;1.57;;
12844;SDS011;68700;48.534;9.196;2023-09-19T07:22:29;2.93;;;1.37;;
12844;SDS011;68700;48.534;9.196;2023-09-19T07:25:51;2.70;;;1.40;;
12844;SDS011;68700;48.534;9.196;2023-09-19T07:29:14;1.20;;;1.10;;
12844;SDS011;68700;48.534;9.196;2023-09-19T07:32:36;1.63;;;1.20;;
12844;SDS011;68700;48.534;9.196;2023-09-19T07:35:58;1.50;;;1.10;;
12844;SDS011;68700;48.534;9.196;2023-09-19T07:39:20;2.43;;;1.30;;
12844;SDS011;68700;48.534;9.196;2023-09-19T07:42:42;3.33;;;1.30;;
12844;SDS011;68700;48.534;9.196;2023-09-19T07:46:08;3.27;;;1.37;;
12844;SDS011;68700;48.534;9.196;2023-09-19T07:49:30;2.00;;;1.30;;
12844;SDS011;68700;48.534;9.196;2023-09-19T07:52:52;1.20;;;1.03;;
12844;SDS011;68700;48.534;9.196;2023-09-19T07:56:14;1.40;;;1.20;;
12844;SDS011;68700;48.534;9.196;2023-09-19T07:59:37;1.83;;;1.40;;
12844;SDS011;68700;48.534;9.196;2023-09-19T08:03:03;1.97;;;1.40;;
12844;SDS011;68700;48.534;9.196;2023-09-19T08:06:26;2.17;;;1.10;;
12844;SDS011;68700;48.534;9.196;2023-09-19T08:09:50;1.40;;;1.00;;
12844;SDS011;68700;48.534;9.196;2023-09-19T08:13:12;1.83;;;1.23;;
12844;SDS011;68700;48.534;9.196;2023-09-19T08:16:34;2.57;;;1.40;;
12844;SDS011;68700;48.534;9.196;2023-09-19T08:19:57;2.63;;;1.13;;
12844;SDS011;68700;48.534;9.196;2023-09-19T08:23:20;2.20;;;1.20;;
12844;SDS011;68700;48.534;9.196;2023-09-19T08:26:42;1.60;;;1.10;;
12844;SDS011;68700;48.534;9.196;2023-09-19T08:30:05;1.80;;;1.37;;
12844;SDS011;68700;48.534;9.196;2023-09-19T08:33:27;1.90;;;1.20;;
12844;SDS011;68700;48.534;9.196;2023-09-19T08:36:51;2.07;;;1.47;;
12844;SDS011;68700;48.534;9.196;2023-09-19T08:40:16;1.97;;;1.57;;
12844;SDS011;68700;48.534;9.196;2023-09-19T08:43:38;2.63;;;1.30;;
12844;SDS011;68700;48.534;9.196;2023-09-19T08:47:01;1.20;;;1.00;;
12844;SDS011;68700;48.534;9.196;2023-09-19T08:54:40;3.43;;;1.23;;
12844;SDS011;68700;48.534;9.196;2023-09-19T08:58:03;1.73;;;1.23;;
12844;SDS011;68700;48.534;9.196;2023-09-19T09:01:28;2.37;;;1.40;;
12844;SDS011;68700;48.534;9.196;2023-09-19T09:04:52;2.13;;;1.20;;
12844;SDS011;68700;48.534;9.196;2023-09-19T09:08:15;2.27;;;1.23;;
12844;SDS011;68700;48.534;9.196;2023-09-19T09:11:39;3.03;;;1.40;;
12844;SDS011;68700;48.534;9.196;2023-09-19T09:15:02;2.83;;;1.30;;
12844;SDS011;68700;48.534;9.196;2023-09-19T09:18:25;1.63;;;1.40;;
12844;SDS011;68700;48.534;9.196;2023-09-19T09:21:46;2.00;;;1.37;;
12844;SDS011;68700;48.534;9.196;2023-09-19T09:25:08;1.87;;;1.30;;
12844;SDS011;68700;48.534;9.196;2023-09-19T09:28:32;1.53;;;1.20;;
12844;SDS011;68700;48.534;9.196;2023-09-19T09:31:55;2.30;;;1.40;;
12844;SDS011;68700;48.534;9.196;2023-09-19T09:35:46;1.70;;;1.40;;
12844;SDS011;68700;48.534;9.196;2023-09-19T09:39:12;3.70;;;1.40;;
12844;SDS011;68700;48.534;9.196;2023-09-19T09:42:38;2.23;;;1.30;;
12844;SDS011;68700;48.534;9.196;2023-09-19T09:46:09;4.03;;;1.30;;
12844;SDS011;68700;48.534;9.196;2023-09-19T09:49:50;1.90;;;1.40;;
12844;SDS011;68700;48.534;9.196;2023-09-19T09:53:27;2.40;;;1.30;;
12844;SDS011;68700;48.534;9.196;2023-09-19T09:56:52;4.37;;;1.30;;
12844;SDS011;68700;48.534;9.196;2023-09-19T10:00:18;5.23;;;1.50;;
12844;SDS011;68700;48.534;9.196;2023-09-19T10:03:42;2.77;;;1.33;;
12844;SDS011;68700;48.534;9.196;2023-09-19T10:07:07;2.07;;;1.20;;
12844;SDS011;68700;48.534;9.196;2023-09-19T10:10:31;2.30;;;1.40;;
12844;SDS011;68700;48.534;9.196;2023-09-19T10:14:05;2.83;;;1.40;;
12844;SDS011;68700;48.534;9.196;2023-09-19T10:17:30;5.10;;;1.53;;
12844;SDS011;68700;48.534;9.196;2023-09-19T10:20:56;2.40;;;1.20;;
12844;SDS011;68700;48.534;9.196;2023-09-19T10:24:20;1.40;;;1.10;;
12844;SDS011;68700;48.534;9.196;2023-09-19T10:27:45;1.97;;;1.50;;
12844;SDS011;68700;48.534;9.196;2023-09-19T10:31:06;2.80;;;1.67;;
12844;SDS011;68700;48.534;9.196;2023-09-19T10:34:34;2.03;;;1.50;;
12844;SDS011;68700;48.534;9.196;2023-09-19T10:38:00;2.13;;;1.57;;
12844;SDS011;68700;48.534;9.196;2023-09-19T10:41:23;1.70;;;1.40;;
12844;SDS011;68700;48.534;9.196;2023-09-19T10:44:46;2.13;;;1.43;;
12844;SDS011;68700;48.534;9.196;2023-09-19T10:48:13;2.60;;;1.70;;
12844;SDS011;68700;48.534;9.196;2023-09-19T10:51:38;1.30;;;1.20;;
12844;SDS011;68700;48.534;9.196;2023-09-19T10:55:04;1.87;;;1.43;;
12844;SDS011;68700;48.534;9.196;2023-09-19T10:58:27;1.53;;;1.30;;
12844;SDS011;68700;48.534;9.196;2023-09-19T11:01:52;2.20;;;1.37;;
12844;SDS011;68700;48.534;9.196;2023-09-19T11:05:17;1.60;;;1.40;;
12844;SDS011;68700;48.534;9.196;2023-09-19T11:08:50;1.87;;;1.67;;
12844;SDS011;68700;48.534;9.196;2023-09-19T11:12:48;1.70;;;1.20;;
12844;SDS011;68700;48.534;9.196;2023-09-19T11:16:10;1.90;;;1.30;;
12844;SDS011;68700;48.534;9.196;2023-09-19T11:23:44;4.30;;;1.50;;
12844;SDS011;68700;48.534;9.196;2023-09-19T11:31:52;1.43;;;1.30;;
12844;SDS011;68700;48.534;9.196;2023-09-19T11:35:18;1.67;;;1.30;;
12844;SDS011;68700;48.534;9.196;2023-09-19T11:46:09;2.30;;;1.40;;
12844;SDS011;68700;48.534;9.196;2023-09-19T11:49:32;1.70;;;1.50;;
12844;SDS011;68700;48.534;9.196;2023-09-19T11:52:54;1.70;;;1.47;;
12844;SDS011;68700;48.534;9.196;2023-09-19T11:56:17;3.40;;;1.30;;
12844;SDS011;68700;48.534;9.196;2023-09-19T11:59:40;2.03;;;1.23;;
12844;SDS011;68700;48.534;9.196;2023-09-19T12:03:05;2.50;;;1.53;;
12844;SDS011;68700;48.534;9.196;2023-09-19T12:06:30;2.07;;;1.60;;
12844;SDS011;68700;48.534;9.196;2023-09-19T12:10:02;3.20;;;1.50;;
12844;SDS011;68700;48.534;9.196;2023-09-19T12:13:40;1.77;;;1.13;;
12844;SDS011;68700;48.534;9.196;2023-09-19T12:17:04;1.43;;;1.30;;
12844;SDS011;68700;48.534;9.196;2023-09-19T12:20:41;1.40;;;1.30;;
12844;SDS011;68700;48.534;9.196;2023-09-19T12:24:06;2.43;;;1.30;;
12844;SDS011;68700;48.534;9.196;2023-09-19T12:27:40;1.57;;;1.20;;
12844;SDS011;68700;48.534;9.196;2023-09-19T12:31:06;2.27;;;1.37;;
12844;SDS011;68700;48.534;9.196;2023-09-19T12:34:29;1.93;;;1.43;;
12844;SDS011;68700;48.534;9.196;2023-09-19T12:37:56;1.27;;;1.17;;
12844;SDS011;68700;48.534;9.196;2023-09-19T12:41:18;3.23;;;1.60;;
12844;SDS011;68700;48.534;9.196;2023-09-19T12:44:42;2.03;;;1.73;;
12844;SDS011;68700;48.534;9.196;2023-09-19T12:48:18;3.00;;;1.80;;
12844;SDS011;68700;48.534;9.196;2023-09-19T12:51:49;2.17;;;1.40;;
12844;SDS011;68700;48.534;9.196;2023-09-19T12:55:21;2.70;;;1.50;;
12844;SDS011;68700;48.534;9.196;2023-09-19T12:58:51;4.13;;;2.03;;
12844;SDS011;68700;48.534;9.196;2023-09-19T13:02:14;1.73;;;1.13;;
12844;SDS011;68700;48.534;9.196;2023-09-19T13:05:47;2.40;;;1.60;;
12844;SDS011;68700;48.534;9.196;2023-09-19T13:09:15;2.83;;;1.43;;
12844;SDS011;68700;48.534;9.196;2023-09-19T13:12:39;2.03;;;1.30;;
12844;SDS011;68700;48.534;9.196;2023-09-19T13:16:04;1.57;;;1.30;;
12844;SDS011;68700;48.534;9.196;2023-09-19T13:19:38;2.77;;;1.50;;
12844;SDS011;68700;48.534;9.196;2023-09-19T13:23:03;1.97;;;1.30;;
12844;SDS011;68700;48.534;9.196;2023-09-19T13:26:30;3.30;;;1.47;;
12844;SDS011;68700;48.534;9.196;2023-09-19T13:29:53;2.77;;;1.40;;
12844;SDS011;68700;48.534;9.196;2023-09-19T13:33:18;3.23;;;1.50;;
12844;SDS011;68700;48.534;9.196;2023-09-19T13:36:41;3.63;;;1.70;;
12844;SDS011;68700;48.534;9.196;2023-09-19T13:40:03;2.43;;;1.40;;
12844;SDS011;68700;48.534;9.196;2023-09-19T13:43:26;1.90;;;1.50;;
12844;SDS011;68700;48.534;9.196;2023-09-19T13:46:50;3.50;;;1.60;;
12844;SDS011;68700;48.534;9.196;2023-09-19T13:50:14;2.30;;;1.47;;
12844;SDS011;68700;48.534;9.196;2023-09-19T13:53:37;1.60;;;1.50;;
12844;SDS011;68700;48.534;9.196;2023-09-19T13:56:59;3.17;;;1.60;;
12844;SDS011;68700;48.534;9.196;2023-09-19T14:00:21;2.60;;;1.60;;
12844;SDS011;68700;48.534;9.196;2023-09-19T14:03:44;2.17;;;1.50;;
12844;SDS011;68700;48.534;9.196;2023-09-19T14:07:07;1.63;;;1.47;;
12844;SDS011;68700;48.534;9.196;2023-09-19T14:10:29;2.80;;;1.40;;
12844;SDS011;68700;48.534;9.196;2023-09-19T14:13:52;2.57;;;1.63;;
12844;SDS011;68700;48.534;9.196;2023-09-19T14:17:14;1.93;;;1.63;;
12844;SDS011;68700;48.534;9.196;2023-09-19T14:20:38;2.13;;;1.57;;
12844;SDS011;68700;48.534;9.196;2023-09-19T14:24:01;2.73;;;1.40;;
12844;SDS011;68700;48.534;9.196;2023-09-19T14:27:24;2.73;;;1.43;;
12844;SDS011;68700;48.534;9.196;2023-09-19T14:30:50;3.17;;;1.50;;
12844;SDS011;68700;48.534;9.196;2023-09-19T14:34:12;1.53;;;1.30;;
12844;SDS011;68700;48.534;9.196;2023-09-19T14:37:36;2.13;;;1.60;;
12844;SDS011;68700;48.534;9.196;2023-09-19T14:41:00;3.33;;;1.57;;
12844;SDS011;68700;48.534;9.196;2023-09-19T14:44:22;2.87;;;1.60;;
12844;SDS011;68700;48.534;9.196;2023-09-19T14:47:45;2.13;;;1.40;;
12844;SDS011;68700;48.534;9.196;2023-09-19T14:51:07;1.90;;;1.70;;
12844;SDS011;68700;48.534;9.196;2023-09-19T14:54:31;3.70;;;1.70;;
12844;SDS011;68700;48.534;9.196;2023-09-19T14:57:53;2.27;;;1.50;;
12844;SDS011;68700;48.534;9.196;2023-09-19T15:01:17;2.40;;;1.50;;
12844;SDS011;68700;48.534;9.196;2023-09-19T15:04:39;1.73;;;1.40;;
12844;SDS011;68700;48.534;9.196;2023-09-19T15:08:01;1.77;;;1.43;;
12844;SDS011;68700;48.534;9.196;2023-09-19T15:11:24;2.00;;;1.50;;
12844;SDS011;68700;48.534;9.196;2023-09-19T15:14:46;3.10;;;1.67;;
12844;SDS011;68700;48.534;9.196;2023-09-19T15:18:08;1.63;;;1.47;;
12844;SDS011;68700;48.534;9.196;2023-09-19T15:21:29;2.10;;;1.50;;
12844;SDS011;68700;48.534;9.196;2023-09-19T15:24:51;2.50;;;1.67;;
12844;SDS011;68700;48.534;9.196;2023-09-19T15:28:14;1.90;;;1.50;;
12844;SDS011;68700;48.534;9.196;2023-09-19T15:31:36;1.67;;;1.50;;
12844;SDS011;68700;48.534;9.196;2023-09-19T15:34:58;1.67;;;1.40;;
12844;SDS011;68700;48.534;9.196;2023-09-19T15:38:20;1.93;;;1.70;;
12844;SDS011;68700;48.534;9.196;2023-09-19T15:41:44;1.40;;;1.30;;
12844;SDS011;68700;48.534;9.196;2023-09-19T15:45:09;1.50;;;1.40;;
12844;SDS011;68700;48.534;9.196;2023-09-19T15:48:31;1.67;;;1.50;;
12844;SDS011;68700;48.534;9.196;2023-09-19T15:51:53;2.00;;;1.53;;
12844;SDS011;68700;48.534;9.196;2023-09-19T15:55:15;2.23;;;1.70;;
12844;SDS011;68700;48.534;9.196;2023-09-19T15:58:37;2.07;;;1.60;;
12844;SDS011;68700;48.534;9.196;2023-09-19T16:02:00;1.70;;;1.53;;
12844;SDS011;68700;48.534;9.196;2023-09-19T16:05:22;2.97;;;1.80;;
12844;SDS011;68700;48.534;9.196;2023-09-19T16:08:44;3.37;;;1.70;;
12844;SDS011;68700;48.534;9.196;2023-09-19T16:12:07;3.57;;;1.77;;
12844;SDS011;68700;48.534;9.196;2023-09-19T16:15:31;1.90;;;1.60;;
12844;SDS011;68700;48.534;9.196;2023-09-19T16:18:55;2.50;;;1.70;;
12844;SDS011;68700;48.534;9.196;2023-09-19T16:22:22;2.23;;;1.60;;
12844;SDS011;68700;48.534;9.196;2023-09-19T16:25:44;3.20;;;1.80;;
12844;SDS011;68700;48.534;9.196;2023-09-19T16:29:07;1.60;;;1.50;;
12844;SDS011;68700;48.534;9.196;2023-09-19T16:32:30;3.57;;;2.00;;
12844;SDS011;68700;48.534;9.196;2023-09-19T16:35:54;1.67;;;1.40;;
12844;SDS011;68700;48.534;9.196;2023-09-19T16:39:17;3.10;;;1.83;;
12844;SDS011;68700;48.534;9.196;2023-09-19T16:42:39;2.23;;;1.60;;
12844;SDS011;68700;48.534;9.196;2023-09-19T16:46:02;2.60;;;1.60;;
12844;SDS011;68700;48.534;9.196;2023-09-19T16:49:25;2.40;;;1.80;;
12844;SDS011;68700;48.534;9.196;2023-09-19T16:52:50;2.13;;;1.70;;
12844;SDS011;68700;48.534;9.196;2023-09-19T16:56:12;2.30;;;1.50;;
12844;SDS011;68700;48.534;9.196;2023-09-19T16:59:37;3.40;;;1.67;;
12844;SDS011;68700;48.534;9.196;2023-09-19T17:02:59;3.60;;;1.80;;
12844;SDS011;68700;48.534;9.196;2023-09-19T17:06:20;3.03;;;1.70;;
12844;SDS011;68700;48.534;9.196;2023-09-19T17:09:45;2.87;;;1.73;;
12844;SDS011;68700;48.534;9.196;2023-09-19T17:13:07;2.40;;;1.90;;
12844;SDS011;68700;48.534;9.196;2023-09-19T17:16:31;2.27;;;1.67;;
12844;SDS011;68700;48.534;9.196;2023-09-19T17:19:54;2.03;;;1.60;;
12844;SDS011;68700;48.534;9.196;2023-09-19T17:23:16;4.17;;;1.90;;
12844;SDS011;68700;48.534;9.196;2023-09-19T17:26:39;1.90;;;1.60;;
12844;SDS011;68700;48.534;9.196;2023-09-19T17:30:02;2.23;;;1.90;;
12844;SDS011;68700;48.534;9.196;2023-09-19T17:33:25;2.73;;;2.00;;
12844;SDS011;68700;48.534;9.196;2023-09-19T17:36:47;2.30;;;2.00;;
12844;SDS011;68700;48.534;9.196;2023-09-19T17:40:10;3.25;;;2.00;;
12844;SDS011;68700;48.534;9.196;2023-09-19T17:43:34;2.63;;;1.90;;
12844;SDS011;68700;48.534;9.196;2023-09-19T17:46:58;3.90;;;1.80;;
12844;SDS011;68700;48.534;9.196;2023-09-19T17:50:21;2.00;;;1.70;;
12844;SDS011;68700;48.534;9.196;2023-09-19T17:53:43;3.03;;;1.90;;
12844;SDS011;68700;48.534;9.196;2023-09-19T17:57:05;3.57;;;2.07;;
12844;SDS011;68700;48.534;9.196;2023-09-19T18:00:29;4.60;;;2.33;;
12844;SDS011;68700;48.534;9.196;2023-09-19T18:03:51;1.87;;;1.70;;
12844;SDS011;68700;48.534;9.196;2023-09-19T18:07:16;2.67;;;2.13;;
12844;SDS011;68700;48.534;9.196;2023-09-19T18:10:38;2.00;;;1.80;;
12844;SDS011;68700;48.534;9.196;2023-09-19T18:14:00;4.10;;;1.70;;
12844;SDS011;68700;48.534;9.196;2023-09-19T18:17:23;1.70;;;1.60;;
12844;SDS011;68700;48.534;9.196;2023-09-19T18:20:45;2.00;;;1.80;;
12844;SDS011;68700;48.534;9.196;2023-09-19T18:24:07;2.37;;;1.87;;
12844;SDS011;68700;48.534;9.196;2023-09-19T18:27:34;2.20;;;2.00;;
12844;SDS011;68700;48.534;9.196;2023-09-19T18:30:58;4.07;;;2.03;;
12844;SDS011;68700;48.534;9.196;2023-09-19T18:34:21;3.73;;;2.30;;
12844;SDS011;68700;48.534;9.196;2023-09-19T18:37:43;2.53;;;2.13;;
12844;SDS011;68700;48.534;9.196;2023-09-19T18:41:06;4.37;;;2.50;;
12844;SDS011;68700;48.534;9.196;2023-09-19T18:44:28;2.47;;;2.03;;
12844;SDS011;68700;48.534;9.196;2023-09-19T18:47:50;1.67;;;1.57;;
12844;SDS011;68700;48.534;9.196;2023-09-19T18:51:13;5.13;;;1.90;;
12844;SDS011;68700;48.534;9.196;2023-09-19T18:54:38;2.73;;;1.83;;
12844;SDS011;68700;48.534;9.196;2023-09-19T18:58:00;2.63;;;1.70;;
12844;SDS011;68700;48.534;9.196;2023-09-19T19:01:22;2.57;;;1.93;;
12844;SDS011;68700;48.534;9.196;2023-09-19T19:04:44;5.23;;;3.03;;
12844;SDS011;68700;48.534;9.196;2023-09-19T19:08:07;2.20;;;2.00;;
12844;SDS011;68700;48.534;9.196;2023-09-19T19:11:29;2.60;;;2.10;;
12844;SDS011;68700;48.534;9.196;2023-09-19T19:14:52;4.87;;;2.00;;
12844;SDS011;68700;48.534;9.196;2023-09-19T19:18:14;3.50;;;2.00;;
12844;SDS011;68700;48.534;9.196;2023-09-19T19:21:36;3.00;;;1.90;;
12844;SDS011;68700;48.534;9.196;2023-09-19T19:24:59;2.57;;;2.37;;
12844;SDS011;68700;48.534;9.196;2023-09-19T19:28:21;2.70;;;1.80;;
12844;SDS011;68700;48.534;9.196;2023-09-19T19:31:43;4.43;;;2.10;;
12844;SDS011;68700;48.534;9.196;2023-09-19T19:35:10;2.53;;;2.00;;
12844;SDS011;68700;48.534;9.196;2023-09-19T19:38:33;2.80;;;2.00;;
12844;SDS011;68700;48.534;9.196;2023-09-19T19:41:56;2.37;;;2.07;;
12844;SDS011;68700;48.534;9.196;2023-09-19T19:45:18;2.20;;;1.90;;
12844;SDS011;68700;48.534;9.196;2023-09-19T19:48:40;3.33;;;2.07;;
12844;SDS011;68700;48.534;9.196;2023-09-19T19:52:02;3.37;;;1.80;;
12844;SDS011;68700;48.534;9.196;2023-09-19T19:55:25;2.00;;;1.80;;
12844;SDS011;68700;48.534;9.196;2023-09-19T19:58:49;3.47;;;1.73;;
12844;SDS011;68700;48.534;9.196;2023-09-19T20:02:11;2.57;;;1.90;;
12844;SDS011;68700;48.534;9.196;2023-09-19T20:05:36;3.00;;;1.93;;
12844;SDS011;68700;48.534;9.196;2023-09-19T20:08:59;2.27;;;2.07;;
12844;SDS011;68700;48.534;9.196;2023-09-19T20:12:21;2.97;;;2.07;;
12844;SDS011;68700;48.534;9.196;2023-09-19T20:15:44;3.40;;;2.03;;
12844;SDS011;68700;48.534;9.196;2023-09-19T20:19:15;2.23;;;1.87;;
12844;SDS011;68700;48.534;9.196;2023-09-19T20:22:37;2.10;;;1.90;;
12844;SDS011;68700;48.534;9.196;2023-09-19T20:26:00;2.63;;;1.70;;
12844;SDS011;68700;48.534;9.196;2023-09-19T20:29:24;4.97;;;2.33;;
12844;SDS011;68700;48.534;9.196;2023-09-19T20:32:49;3.20;;;2.20;;
12844;SDS011;68700;48.534;9.196;2023-09-19T20:36:11;3.00;;;1.70;;
12844;SDS011;68700;48.534;9.196;2023-09-19T20:39:36;2.23;;;1.80;;
12844;SDS011;68700;48.534;9.196;2023-09-19T20:43:02;2.87;;;2.10;;
12844;SDS011;68700;48.534;9.196;2023-09-19T20:46:27;2.10;;;1.90;;
12844;SDS011;68700;48.534;9.196;2023-09-19T20:49:50;1.93;;;1.77;;
12844;SDS011;68700;48.534;9.196;2023-09-19T20:53:12;3.40;;;2.00;;